sensor_id;sensor_type;location;lat;lon;timestamp;temperature;humidity
25973;DHT22;13765;51.166;4.466;2023-04-24T00:01:57;10.20;99.90
25973;DHT22;13765;51.166;4.466;2023-04-24T00:04:22;10.10;99.90
25973;DHT22;13765;51.166;4.466;2023-04-24T00:06:51;10.10;99.90
25973;DHT22;13765;51.166;4.466;2023-04-24T00:09:19;10.10;99.90
25973;DHT22;13765;51.166;4.466;2023-04-24T00:11:45;10.20;99.90
25973;DHT22;13765;51.166;4.466;2023-04-24T00:14:10;10.20;99.90
25973;DHT22;13765;51.166;4.466;2023-04-24T00:16:36;10.30;99.90
25973;DHT22;13765;51.166;4.466;2023-04-24T00:19:04;10.30;99.90
25973;DHT22;13765;51.166;4.466;2023-04-24T00:21:32;10.30;99.90
25973;DHT22;13765;51.166;4.466;2023-04-24T00:24:00;10.20;99.90
25973;DHT22;13765;51.166;4.466;2023-04-24T00:26:26;10.20;99.90
25973;DHT22;13765;51.166;4.466;2023-04-24T00:28:51;10.20;99.90
25973;DHT22;13765;51.166;4.466;2023-04-24T00:31:17;10.20;99.90
25973;DHT22;13765;51.166;4.466;2023-04-24T00:33:45;10.20;99.90
25973;DHT22;13765;51.166;4.466;2023-04-24T00:36:13;10.10;99.90
25973;DHT22;13765;51.166;4.466;2023-04-24T00:38:41;10.20;99.90
25973;DHT22;13765;51.166;4.466;2023-04-24T00:41:07;10.20;99.90
25973;DHT22;13765;51.166;4.466;2023-04-24T00:43:35;10.10;99.90
25973;DHT22;13765;51.166;4.466;2023-04-24T00:46:00;10.20;99.90
25973;DHT22;13765;51.166;4.466;2023-04-24T00:48:27;10.20;99.90
25973;DHT22;13765;51.166;4.466;2023-04-24T00:50:53;10.20;99.90
25973;DHT22;13765;51.166;4.466;2023-04-24T00:53:19;10.20;99.90
25973;DHT22;13765;51.166;4.466;2023-04-24T00:55:47;10.20;99.90
25973;DHT22;13765;51.166;4.466;2023-04-24T00:58:13;10.20;99.90
25973;DHT22;13765;51.166;4.466;2023-04-24T01:00:39;10.20;99.90
25973;DHT22;13765;51.166;4.466;2023-04-24T01:03:05;10.20;99.90
25973;DHT22;13765;51.166;4.466;2023-04-24T01:05:31;10.20;99.90
25973;DHT22;13765;51.166;4.466;2023-04-24T01:07:58;10.20;99.90
25973;DHT22;13765;51.166;4.466;2023-04-24T01:10:25;10.10;99.90
25973;DHT22;13765;51.166;4.466;2023-04-24T01:12:53;10.10;99.90
25973;DHT22;13765;51.166;4.466;2023-04-24T01:15:23;10.10;99.90
25973;DHT22;13765;51.166;4.466;2023-04-24T01:17:48;10.00;99.90
25973;DHT22;13765;51.166;4.466;2023-04-24T01:20:18;10.10;99.90
25973;DHT22;13765;51.166;4.466;2023-04-24T01:22:44;10.10;99.90
25973;DHT22;13765;51.166;4.466;2023-04-24T01:25:10;10.10;99.90
25973;DHT22;13765;51.166;4.466;2023-04-24T01:27:36;10.10;99.90
25973;DHT22;13765;51.166;4.466;2023-04-24T01:30:01;10.00;99.90
25973;DHT22;13765;51.166;4.466;2023-04-24T01:32:29;10.00;99.90
25973;DHT22;13765;51.166;4.466;2023-04-24T01:34:55;10.00;99.90
25973;DHT22;13765;51.166;4.466;2023-04-24T01:37:21;10.00;99.90
25973;DHT22;13765;51.166;4.466;2023-04-24T01:39:49;10.00;99.90
25973;DHT22;13765;51.166;4.466;2023-04-24T01:42:16;9.90;99.90
25973;DHT22;13765;51.166;4.466;2023-04-24T01:44:42;10.00;99.90
25973;DHT22;13765;51.166;4.466;2023-04-24T01:47:08;10.00;99.90
25973;DHT22;13765;51.166;4.466;2023-04-24T01:49:34;10.00;99.90
25973;DHT22;13765;51.166;4.466;2023-04-24T01:52:00;10.00;99.90
25973;DHT22;13765;51.166;4.466;2023-04-24T01:54:25;9.90;99.90
25973;DHT22;13765;51.166;4.466;2023-04-24T01:56:51;9.90;99.90
25973;DHT22;13765;51.166;4.466;2023-04-24T01:59:17;10.00;99.90
25973;DHT22;13765;51.166;4.466;2023-04-24T02:01:43;10.10;99.90
25973;DHT22;13765;51.166;4.466;2023-04-24T02:04:09;10.10;99.90
25973;DHT22;13765;51.166;4.466;2023-04-24T02:06:36;10.10;99.90
25973;DHT22;13765;51.166;4.466;2023-04-24T02:09:02;10.10;99.90
25973;DHT22;13765;51.166;4.466;2023-04-24T02:11:30;10.10;99.90
25973;DHT22;13765;51.166;4.466;2023-04-24T02:13:58;10.10;99.90
25973;DHT22;13765;51.166;4.466;2023-04-24T02:16:24;10.10;99.90
25973;DHT22;13765;51.166;4.466;2023-04-24T02:18:50;10.00;99.90
25973;DHT22;13765;51.166;4.466;2023-04-24T02:21:18;10.00;99.90
25973;DHT22;13765;51.166;4.466;2023-04-24T02:23:48;9.90;99.90
25973;DHT22;13765;51.166;4.466;2023-04-24T02:26:17;9.90;99.90
25973;DHT22;13765;51.166;4.466;2023-04-24T02:28:43;9.90;99.90
25973;DHT22;13765;51.166;4.466;2023-04-24T02:31:11;9.90;99.90
25973;DHT22;13765;51.166;4.466;2023-04-24T02:33:37;9.90;99.90
25973;DHT22;13765;51.166;4.466;2023-04-24T02:36:02;9.90;99.90
25973;DHT22;13765;51.166;4.466;2023-04-24T02:38:28;9.80;99.90
25973;DHT22;13765;51.166;4.466;2023-04-24T02:40:54;9.80;99.90
25973;DHT22;13765;51.166;4.466;2023-04-24T02:43:22;9.70;99.90
25973;DHT22;13765;51.166;4.466;2023-04-24T02:45:48;9.60;99.90
25973;DHT22;13765;51.166;4.466;2023-04-24T02:48:16;9.50;99.90
25973;DHT22;13765;51.166;4.466;2023-04-24T02:50:46;9.50;99.90
25973;DHT22;13765;51.166;4.466;2023-04-24T02:53:11;9.50;99.90
25973;DHT22;13765;51.166;4.466;2023-04-24T02:55:37;9.50;99.90
25973;DHT22;13765;51.166;4.466;2023-04-24T02:58:05;9.50;99.90
25973;DHT22;13765;51.166;4.466;2023-04-24T03:00:31;9.50;99.90
25973;DHT22;13765;51.166;4.466;2023-04-24T03:02:57;9.50;99.90
25973;DHT22;13765;51.166;4.466;2023-04-24T03:05:25;9.40;99.90
25973;DHT22;13765;51.166;4.466;2023-04-24T03:07:50;9.40;99.90
25973;DHT22;13765;51.166;4.466;2023-04-24T03:10:18;9.30;99.90
25973;DHT22;13765;51.166;4.466;2023-04-24T03:12:47;9.30;99.90
25973;DHT22;13765;51.166;4.466;2023-04-24T03:15:13;9.20;99.90
25973;DHT22;13765;51.166;4.466;2023-04-24T03:17:41;9.20;99.90
25973;DHT22;13765;51.166;4.466;2023-04-24T03:20:08;9.20;99.90
25973;DHT22;13765;51.166;4.466;2023-04-24T03:22:34;9.20;99.90
25973;DHT22;13765;51.166;4.466;2023-04-24T03:25:02;9.30;99.90
25973;DHT22;13765;51.166;4.466;2023-04-24T03:27:28;9.30;99.90
25973;DHT22;13765;51.166;4.466;2023-04-24T03:29:56;9.30;99.90
25973;DHT22;13765;51.166;4.466;2023-04-24T03:32:22;9.30;99.90
25973;DHT22;13765;51.166;4.466;2023-04-24T03:34:49;9.40;99.90
25973;DHT22;13765;51.166;4.466;2023-04-24T03:37:15;9.40;99.90
25973;DHT22;13765;51.166;4.466;2023-04-24T03:39:41;9.40;99.90
25973;DHT22;13765;51.166;4.466;2023-04-24T03:42:07;9.50;99.90
25973;DHT22;13765;51.166;4.466;2023-04-24T03:44:34;9.50;99.90
25973;DHT22;13765;51.166;4.466;2023-04-24T03:47:02;9.60;99.90
25973;DHT22;13765;51.166;4.466;2023-04-24T03:49:30;9.60;99.90
25973;DHT22;13765;51.166;4.466;2023-04-24T03:51:58;9.50;99.90
25973;DHT22;13765;51.166;4.466;2023-04-24T03:54:26;9.50;99.90
25973;DHT22;13765;51.166;4.466;2023-04-24T03:56:54;9.50;99.90
25973;DHT22;13765;51.166;4.466;2023-04-24T03:59:20;9.60;99.90
25973;DHT22;13765;51.166;4.466;2023-04-24T04:01:48;9.60;99.90
25973;DHT22;13765;51.166;4.466;2023-04-24T04:04:14;9.50;99.90
25973;DHT22;13765;51.166;4.466;2023-04-24T04:06:39;9.50;99.90
25973;DHT22;13765;51.166;4.466;2023-04-24T04:09:07;9.50;99.90
25973;DHT22;13765;51.166;4.466;2023-04-24T04:11:34;9.40;99.90
25973;DHT22;13765;51.166;4.466;2023-04-24T04:14:01;9.30;99.90
25973;DHT22;13765;51.166;4.466;2023-04-24T04:16:26;9.30;99.90
25973;DHT22;13765;51.166;4.466;2023-04-24T04:18:52;9.40;99.90
25973;DHT22;13765;51.166;4.466;2023-04-24T04:21:17;9.30;99.90
25973;DHT22;13765;51.166;4.466;2023-04-24T04:23:43;9.30;99.90
25973;DHT22;13765;51.166;4.466;2023-04-24T04:26:11;9.20;99.90
25973;DHT22;13765;51.166;4.466;2023-04-24T04:28:39;9.30;99.90
25973;DHT22;13765;51.166;4.466;2023-04-24T04:31:08;9.30;99.90
25973;DHT22;13765;51.166;4.466;2023-04-24T04:33:34;9.30;99.90
25973;DHT22;13765;51.166;4.466;2023-04-24T04:36:03;9.40;99.90
25973;DHT22;13765;51.166;4.466;2023-04-24T04:38:29;9.30;99.90
25973;DHT22;13765;51.166;4.466;2023-04-24T04:40:57;9.30;99.90
25973;DHT22;13765;51.166;4.466;2023-04-24T04:43:26;9.20;99.90
25973;DHT22;13765;51.166;4.466;2023-04-24T04:45:52;9.20;99.90
25973;DHT22;13765;51.166;4.466;2023-04-24T04:48:19;9.20;99.90
25973;DHT22;13765;51.166;4.466;2023-04-24T04:50:50;9.20;99.90
25973;DHT22;13765;51.166;4.466;2023-04-24T04:53:16;9.20;99.90
25973;DHT22;13765;51.166;4.466;2023-04-24T04:55:42;9.20;99.90
25973;DHT22;13765;51.166;4.466;2023-04-24T04:58:07;9.00;99.90
25973;DHT22;13765;51.166;4.466;2023-04-24T05:00:33;9.00;99.90
25973;DHT22;13765;51.166;4.466;2023-04-24T05:03:01;9.10;99.90
25973;DHT22;13765;51.166;4.466;2023-04-24T05:05:29;9.00;99.90
25973;DHT22;13765;51.166;4.466;2023-04-24T05:07:57;8.90;99.90
25973;DHT22;13765;51.166;4.466;2023-04-24T05:10:23;8.90;99.90
25973;DHT22;13765;51.166;4.466;2023-04-24T05:12:49;8.90;99.90
25973;DHT22;13765;51.166;4.466;2023-04-24T05:15:15;8.80;99.90
25973;DHT22;13765;51.166;4.466;2023-04-24T05:17:43;8.90;99.90
25973;DHT22;13765;51.166;4.466;2023-04-24T05:20:08;9.00;99.90
25973;DHT22;13765;51.166;4.466;2023-04-24T05:22:35;8.90;99.90
25973;DHT22;13765;51.166;4.466;2023-04-24T05:25:01;8.90;99.90
25973;DHT22;13765;51.166;4.466;2023-04-24T05:27:27;8.90;99.90
25973;DHT22;13765;51.166;4.466;2023-04-24T05:29:53;9.00;99.90
25973;DHT22;13765;51.166;4.466;2023-04-24T05:32:19;9.00;99.90
25973;DHT22;13765;51.166;4.466;2023-04-24T05:34:49;8.90;99.90
25973;DHT22;13765;51.166;4.466;2023-04-24T05:37:17;8.90;99.90
25973;DHT22;13765;51.166;4.466;2023-04-24T05:39:45;8.70;99.90
25973;DHT22;13765;51.166;4.466;2023-04-24T05:42:11;8.70;99.90
25973;DHT22;13765;51.166;4.466;2023-04-24T05:44:36;8.70;99.90
25973;DHT22;13765;51.166;4.466;2023-04-24T05:47:02;8.70;99.90
25973;DHT22;13765;51.166;4.466;2023-04-24T05:49:28;8.70;99.90
25973;DHT22;13765;51.166;4.466;2023-04-24T05:51:53;8.70;99.90
25973;DHT22;13765;51.166;4.466;2023-04-24T05:54:24;8.70;99.90
25973;DHT22;13765;51.166;4.466;2023-04-24T05:56:50;8.80;99.90
25973;DHT22;13765;51.166;4.466;2023-04-24T05:59:16;8.80;99.90
25973;DHT22;13765;51.166;4.466;2023-04-24T06:01:42;8.80;99.90
25973;DHT22;13765;51.166;4.466;2023-04-24T06:04:10;8.90;99.90
25973;DHT22;13765;51.166;4.466;2023-04-24T06:06:39;8.90;99.90
25973;DHT22;13765;51.166;4.466;2023-04-24T06:09:04;9.00;99.90
25973;DHT22;13765;51.166;4.466;2023-04-24T06:11:30;9.10;99.90
25973;DHT22;13765;51.166;4.466;2023-04-24T06:13:56;9.10;99.90
25973;DHT22;13765;51.166;4.466;2023-04-24T06:16:21;9.10;99.90
25973;DHT22;13765;51.166;4.466;2023-04-24T06:18:47;9.10;99.90
25973;DHT22;13765;51.166;4.466;2023-04-24T06:21:13;9.10;99.90
25973;DHT22;13765;51.166;4.466;2023-04-24T06:23:39;9.10;99.90
25973;DHT22;13765;51.166;4.466;2023-04-24T06:26:05;9.20;99.90
25973;DHT22;13765;51.166;4.466;2023-04-24T06:28:30;9.30;99.90
25973;DHT22;13765;51.166;4.466;2023-04-24T06:31:00;9.30;99.90
25973;DHT22;13765;51.166;4.466;2023-04-24T06:33:26;9.30;99.90
25973;DHT22;13765;51.166;4.466;2023-04-24T06:35:51;9.20;99.90
25973;DHT22;13765;51.166;4.466;2023-04-24T06:38:19;9.20;99.90
25973;DHT22;13765;51.166;4.466;2023-04-24T06:40:48;9.30;99.90
25973;DHT22;13765;51.166;4.466;2023-04-24T06:43:13;9.30;99.90
25973;DHT22;13765;51.166;4.466;2023-04-24T06:45:40;9.30;99.90
25973;DHT22;13765;51.166;4.466;2023-04-24T06:48:05;9.30;99.90
25973;DHT22;13765;51.166;4.466;2023-04-24T06:50:31;9.30;99.90
25973;DHT22;13765;51.166;4.466;2023-04-24T06:52:57;9.30;99.90
25973;DHT22;13765;51.166;4.466;2023-04-24T06:55:22;9.30;99.90
25973;DHT22;13765;51.166;4.466;2023-04-24T06:57:48;9.40;99.90
25973;DHT22;13765;51.166;4.466;2023-04-24T07:00:14;9.40;99.90
25973;DHT22;13765;51.166;4.466;2023-04-24T07:02:40;9.40;99.90
25973;DHT22;13765;51.166;4.466;2023-04-24T07:05:06;9.30;99.90
25973;DHT22;13765;51.166;4.466;2023-04-24T07:07:36;9.30;99.90
25973;DHT22;13765;51.166;4.466;2023-04-24T07:10:12;9.30;99.90
25973;DHT22;13765;51.166;4.466;2023-04-24T07:12:40;9.30;99.90
25973;DHT22;13765;51.166;4.466;2023-04-24T07:15:07;9.40;99.90
25973;DHT22;13765;51.166;4.466;2023-04-24T07:17:34;9.40;99.90
25973;DHT22;13765;51.166;4.466;2023-04-24T07:20:04;9.40;99.90
25973;DHT22;13765;51.166;4.466;2023-04-24T07:22:31;9.40;99.90
25973;DHT22;13765;51.166;4.466;2023-04-24T07:24:56;9.50;99.90
25973;DHT22;13765;51.166;4.466;2023-04-24T07:27:22;9.50;99.90
25973;DHT22;13765;51.166;4.466;2023-04-24T07:29:48;9.60;99.90
25973;DHT22;13765;51.166;4.466;2023-04-24T07:32:16;9.90;99.90
25973;DHT22;13765;51.166;4.466;2023-04-24T07:34:46;9.70;99.90
25973;DHT22;13765;51.166;4.466;2023-04-24T07:37:17;9.80;99.90
25973;DHT22;13765;51.166;4.466;2023-04-24T07:39:45;9.90;99.90
25973;DHT22;13765;51.166;4.466;2023-04-24T07:42:14;9.90;99.90
25973;DHT22;13765;51.166;4.466;2023-04-24T07:44:42;9.90;99.90
25973;DHT22;13765;51.166;4.466;2023-04-24T07:47:10;10.10;99.90
25973;DHT22;13765;51.166;4.466;2023-04-24T07:49:38;10.30;99.90
25973;DHT22;13765;51.166;4.466;2023-04-24T07:52:03;10.20;99.90
25973;DHT22;13765;51.166;4.466;2023-04-24T07:54:31;10.20;99.90
25973;DHT22;13765;51.166;4.466;2023-04-24T07:56:57;10.20;99.90
25973;DHT22;13765;51.166;4.466;2023-04-24T07:59:25;10.30;99.90
25973;DHT22;13765;51.166;4.466;2023-04-24T08:01:50;10.30;99.90
25973;DHT22;13765;51.166;4.466;2023-04-24T08:04:16;10.60;99.90
25973;DHT22;13765;51.166;4.466;2023-04-24T08:06:43;10.90;99.90
25973;DHT22;13765;51.166;4.466;2023-04-24T08:09:09;11.00;99.90
25973;DHT22;13765;51.166;4.466;2023-04-24T08:11:35;10.80;99.90
25973;DHT22;13765;51.166;4.466;2023-04-24T08:14:00;10.70;99.90
25973;DHT22;13765;51.166;4.466;2023-04-24T08:16:34;10.50;99.90
25973;DHT22;13765;51.166;4.466;2023-04-24T08:19:00;10.40;99.90
25973;DHT22;13765;51.166;4.466;2023-04-24T08:21:28;10.30;99.90
25973;DHT22;13765;51.166;4.466;2023-04-24T08:23:58;10.30;99.90
25973;DHT22;13765;51.166;4.466;2023-04-24T08:26:24;10.20;99.90
25973;DHT22;13765;51.166;4.466;2023-04-24T08:28:50;10.20;99.90
25973;DHT22;13765;51.166;4.466;2023-04-24T08:31:15;10.20;99.90
25973;DHT22;13765;51.166;4.466;2023-04-24T08:33:41;10.30;99.90
25973;DHT22;13765;51.166;4.466;2023-04-24T08:36:07;10.40;99.90
25973;DHT22;13765;51.166;4.466;2023-04-24T08:38:35;10.40;99.90
25973;DHT22;13765;51.166;4.466;2023-04-24T08:41:04;10.50;99.90
25973;DHT22;13765;51.166;4.466;2023-04-24T08:43:32;10.50;99.90
25973;DHT22;13765;51.166;4.466;2023-04-24T08:46:00;10.50;99.90
25973;DHT22;13765;51.166;4.466;2023-04-24T08:48:26;10.50;99.90
25973;DHT22;13765;51.166;4.466;2023-04-24T08:50:53;10.50;99.90
25973;DHT22;13765;51.166;4.466;2023-04-24T08:53:19;10.70;99.90
25973;DHT22;13765;51.166;4.466;2023-04-24T08:55:47;11.10;99.90
25973;DHT22;13765;51.166;4.466;2023-04-24T08:58:14;11.50;99.90
25973;DHT22;13765;51.166;4.466;2023-04-24T09:00:43;11.60;99.90
25973;DHT22;13765;51.166;4.466;2023-04-24T09:03:16;11.40;99.90
25973;DHT22;13765;51.166;4.466;2023-04-24T09:05:49;11.30;99.90
25973;DHT22;13765;51.166;4.466;2023-04-24T09:08:18;11.20;99.90
25973;DHT22;13765;51.166;4.466;2023-04-24T09:10:48;11.00;99.90
25973;DHT22;13765;51.166;4.466;2023-04-24T09:13:14;11.00;99.90
25973;DHT22;13765;51.166;4.466;2023-04-24T09:15:41;10.80;99.90
25973;DHT22;13765;51.166;4.466;2023-04-24T09:18:07;10.60;99.90
25973;DHT22;13765;51.166;4.466;2023-04-24T09:20:33;10.30;99.90
25973;DHT22;13765;51.166;4.466;2023-04-24T09:23:08;10.30;99.90
25973;DHT22;13765;51.166;4.466;2023-04-24T09:25:41;10.40;99.90
25973;DHT22;13765;51.166;4.466;2023-04-24T09:28:07;10.60;99.90
25973;DHT22;13765;51.166;4.466;2023-04-24T09:30:32;10.80;99.90
25973;DHT22;13765;51.166;4.466;2023-04-24T09:33:15;10.90;99.90
25973;DHT22;13765;51.166;4.466;2023-04-24T09:35:42;11.00;99.90
25973;DHT22;13765;51.166;4.466;2023-04-24T09:38:10;11.10;99.90
25973;DHT22;13765;51.166;4.466;2023-04-24T09:40:36;11.10;99.90
25973;DHT22;13765;51.166;4.466;2023-04-24T09:43:02;11.20;99.90
25973;DHT22;13765;51.166;4.466;2023-04-24T09:45:38;11.60;99.90
25973;DHT22;13765;51.166;4.466;2023-04-24T09:48:10;11.90;99.90
25973;DHT22;13765;51.166;4.466;2023-04-24T09:50:36;12.30;99.90
25973;DHT22;13765;51.166;4.466;2023-04-24T09:53:03;12.70;99.90
25973;DHT22;13765;51.166;4.466;2023-04-24T09:55:29;12.40;99.90
25973;DHT22;13765;51.166;4.466;2023-04-24T09:58:02;12.40;99.90
25973;DHT22;13765;51.166;4.466;2023-04-24T10:00:33;12.30;99.90
25973;DHT22;13765;51.166;4.466;2023-04-24T10:03:03;12.00;99.90
25973;DHT22;13765;51.166;4.466;2023-04-24T10:10:28;12.00;99.90
25973;DHT22;13765;51.166;4.466;2023-04-24T10:12:55;12.30;99.90
25973;DHT22;13765;51.166;4.466;2023-04-24T10:15:21;12.80;99.90
25973;DHT22;13765;51.166;4.466;2023-04-24T10:17:48;13.40;99.90
25973;DHT22;13765;51.166;4.466;2023-04-24T10:20:23;13.70;99.90
25973;DHT22;13765;51.166;4.466;2023-04-24T10:22:50;14.10;99.90
25973;DHT22;13765;51.166;4.466;2023-04-24T10:25:26;14.30;99.90
25973;DHT22;13765;51.166;4.466;2023-04-24T10:27:55;14.10;99.90
25973;DHT22;13765;51.166;4.466;2023-04-24T10:30:23;13.80;99.90
25973;DHT22;13765;51.166;4.466;2023-04-24T10:32:49;13.40;99.90
25973;DHT22;13765;51.166;4.466;2023-04-24T10:35:15;13.10;99.90
25973;DHT22;13765;51.166;4.466;2023-04-24T10:37:54;12.60;99.90
25973;DHT22;13765;51.166;4.466;2023-04-24T10:40:26;12.70;99.90
25973;DHT22;13765;51.166;4.466;2023-04-24T10:42:53;12.90;99.90
25973;DHT22;13765;51.166;4.466;2023-04-24T10:45:21;13.00;99.90
25973;DHT22;13765;51.166;4.466;2023-04-24T10:50:25;12.40;99.90
25973;DHT22;13765;51.166;4.466;2023-04-24T10:52:50;12.30;99.90
25973;DHT22;13765;51.166;4.466;2023-04-24T10:55:44;12.50;99.90
25973;DHT22;13765;51.166;4.466;2023-04-24T10:58:13;12.70;99.90
25973;DHT22;13765;51.166;4.466;2023-04-24T11:00:43;12.90;99.90
25973;DHT22;13765;51.166;4.466;2023-04-24T11:03:31;12.90;99.90
25973;DHT22;13765;51.166;4.466;2023-04-24T11:06:01;13.10;99.90
25973;DHT22;13765;51.166;4.466;2023-04-24T11:11:01;13.20;99.90
25973;DHT22;13765;51.166;4.466;2023-04-24T11:16:44;13.00;99.90
25973;DHT22;13765;51.166;4.466;2023-04-24T11:19:22;12.90;99.90
25973;DHT22;13765;51.166;4.466;2023-04-24T11:27:16;12.80;99.90
25973;DHT22;13765;51.166;4.466;2023-04-24T11:32:35;13.90;99.90
25973;DHT22;13765;51.166;4.466;2023-04-24T11:37:46;14.60;99.90
25973;DHT22;13765;51.166;4.466;2023-04-24T11:40:13;14.80;99.90
25973;DHT22;13765;51.166;4.466;2023-04-24T11:42:44;15.00;99.90
25973;DHT22;13765;51.166;4.466;2023-04-24T11:45:23;15.20;99.90
25973;DHT22;13765;51.166;4.466;2023-04-24T11:47:52;14.80;99.90
25973;DHT22;13765;51.166;4.466;2023-04-24T11:50:20;14.50;99.90
25973;DHT22;13765;51.166;4.466;2023-04-24T11:52:48;14.20;99.90
25973;DHT22;13765;51.166;4.466;2023-04-24T11:57:43;13.60;99.90
25973;DHT22;13765;51.166;4.466;2023-04-24T12:00:33;13.50;99.90
25973;DHT22;13765;51.166;4.466;2023-04-24T12:03:12;13.60;99.90
25973;DHT22;13765;51.166;4.466;2023-04-24T12:05:39;13.70;99.90
25973;DHT22;13765;51.166;4.466;2023-04-24T12:08:05;14.10;99.90
25973;DHT22;13765;51.166;4.466;2023-04-24T12:10:34;14.30;99.90
25973;DHT22;13765;51.166;4.466;2023-04-24T12:13:00;14.40;99.90
25973;DHT22;13765;51.166;4.466;2023-04-24T12:15:26;14.20;99.90
25973;DHT22;13765;51.166;4.466;2023-04-24T12:17:53;14.30;99.90
25973;DHT22;13765;51.166;4.466;2023-04-24T12:20:30;14.10;99.90
25973;DHT22;13765;51.166;4.466;2023-04-24T12:23:00;13.80;99.90
25973;DHT22;13765;51.166;4.466;2023-04-24T12:25:33;13.70;99.90
25973;DHT22;13765;51.166;4.466;2023-04-24T12:30:33;13.20;99.90
25973;DHT22;13765;51.166;4.466;2023-04-24T12:32:59;13.20;99.90
25973;DHT22;13765;51.166;4.466;2023-04-24T12:35:29;13.10;99.90
25973;DHT22;13765;51.166;4.466;2023-04-24T12:37:55;13.20;99.90
25973;DHT22;13765;51.166;4.466;2023-04-24T12:40:21;13.30;99.90
25973;DHT22;13765;51.166;4.466;2023-04-24T12:42:50;13.40;99.90
25973;DHT22;13765;51.166;4.466;2023-04-24T12:45:19;13.00;99.90
25973;DHT22;13765;51.166;4.466;2023-04-24T12:47:46;13.20;99.90
25973;DHT22;13765;51.166;4.466;2023-04-24T12:50:15;13.10;99.90
25973;DHT22;13765;51.166;4.466;2023-04-24T12:52:42;13.20;99.90
25973;DHT22;13765;51.166;4.466;2023-04-24T12:55:10;13.20;99.90
25973;DHT22;13765;51.166;4.466;2023-04-24T12:57:39;13.20;99.90
25973;DHT22;13765;51.166;4.466;2023-04-24T13:00:08;13.70;99.90
25973;DHT22;13765;51.166;4.466;2023-04-24T13:02:34;13.90;99.90
25973;DHT22;13765;51.166;4.466;2023-04-24T13:05:00;13.90;99.90
25973;DHT22;13765;51.166;4.466;2023-04-24T13:07:26;13.80;99.90
25973;DHT22;13765;51.166;4.466;2023-04-24T13:09:53;13.70;99.90
25973;DHT22;13765;51.166;4.466;2023-04-24T13:12:20;13.80;99.90
25973;DHT22;13765;51.166;4.466;2023-04-24T13:14:49;14.00;99.90
25973;DHT22;13765;51.166;4.466;2023-04-24T13:17:15;14.00;99.90
25973;DHT22;13765;51.166;4.466;2023-04-24T13:19:41;14.00;99.90
25973;DHT22;13765;51.166;4.466;2023-04-24T13:22:10;14.00;99.90
25973;DHT22;13765;51.166;4.466;2023-04-24T13:24:35;14.40;99.90
25973;DHT22;13765;51.166;4.466;2023-04-24T13:27:08;14.70;99.90
25973;DHT22;13765;51.166;4.466;2023-04-24T13:29:34;14.60;99.90
25973;DHT22;13765;51.166;4.466;2023-04-24T13:32:00;14.90;99.90
25973;DHT22;13765;51.166;4.466;2023-04-24T13:34:29;14.80;99.90
25973;DHT22;13765;51.166;4.466;2023-04-24T13:36:58;14.50;99.90
25973;DHT22;13765;51.166;4.466;2023-04-24T13:39:24;13.90;99.90
25973;DHT22;13765;51.166;4.466;2023-04-24T13:41:50;13.60;99.90
25973;DHT22;13765;51.166;4.466;2023-04-24T13:44:17;14.00;99.90
25973;DHT22;13765;51.166;4.466;2023-04-24T13:46:47;14.40;99.90
25973;DHT22;13765;51.166;4.466;2023-04-24T13:49:13;14.40;99.90
25973;DHT22;13765;51.166;4.466;2023-04-24T13:51:39;14.60;99.90
25973;DHT22;13765;51.166;4.466;2023-04-24T13:54:08;14.60;99.90
25973;DHT22;13765;51.166;4.466;2023-04-24T13:56:33;14.60;99.90
25973;DHT22;13765;51.166;4.466;2023-04-24T13:59:02;14.10;99.90
25973;DHT22;13765;51.166;4.466;2023-04-24T14:01:27;14.10;99.90
25973;DHT22;13765;51.166;4.466;2023-04-24T14:03:56;14.30;99.90
25973;DHT22;13765;51.166;4.466;2023-04-24T14:06:22;14.30;99.90
25973;DHT22;13765;51.166;4.466;2023-04-24T14:08:49;14.30;99.90
25973;DHT22;13765;51.166;4.466;2023-04-24T14:11:18;14.40;99.90
25973;DHT22;13765;51.166;4.466;2023-04-24T14:13:45;14.70;99.90
25973;DHT22;13765;51.166;4.466;2023-04-24T14:16:10;15.10;99.90
25973;DHT22;13765;51.166;4.466;2023-04-24T14:18:36;15.80;99.90
25973;DHT22;13765;51.166;4.466;2023-04-24T14:21:03;16.10;99.90
25973;DHT22;13765;51.166;4.466;2023-04-24T14:23:32;16.30;99.90
25973;DHT22;13765;51.166;4.466;2023-04-24T14:26:00;16.00;99.90
25973;DHT22;13765;51.166;4.466;2023-04-24T14:28:28;15.80;99.90
25973;DHT22;13765;51.166;4.466;2023-04-24T14:30:54;15.70;99.90
25973;DHT22;13765;51.166;4.466;2023-04-24T14:33:20;15.50;99.90
25973;DHT22;13765;51.166;4.466;2023-04-24T14:35:46;15.00;99.90
25973;DHT22;13765;51.166;4.466;2023-04-24T14:38:12;14.30;99.90
25973;DHT22;13765;51.166;4.466;2023-04-24T14:40:41;14.10;99.90
25973;DHT22;13765;51.166;4.466;2023-04-24T14:43:08;14.30;99.90
25973;DHT22;13765;51.166;4.466;2023-04-24T14:45:37;14.60;99.90
25973;DHT22;13765;51.166;4.466;2023-04-24T14:48:03;14.80;99.90
25973;DHT22;13765;51.166;4.466;2023-04-24T14:50:29;14.30;99.90
25973;DHT22;13765;51.166;4.466;2023-04-24T14:52:57;14.40;99.90
25973;DHT22;13765;51.166;4.466;2023-04-24T14:55:23;14.30;99.90
25973;DHT22;13765;51.166;4.466;2023-04-24T14:57:52;14.30;99.90
25973;DHT22;13765;51.166;4.466;2023-04-24T15:00:21;14.40;99.90
25973;DHT22;13765;51.166;4.466;2023-04-24T15:02:48;14.50;99.90
25973;DHT22;13765;51.166;4.466;2023-04-24T15:05:16;14.50;99.90
25973;DHT22;13765;51.166;4.466;2023-04-24T15:07:42;14.60;99.90
25973;DHT22;13765;51.166;4.466;2023-04-24T15:10:08;14.70;99.90
25973;DHT22;13765;51.166;4.466;2023-04-24T15:12:33;14.30;99.90
25973;DHT22;13765;51.166;4.466;2023-04-24T15:15:01;14.10;99.90
25973;DHT22;13765;51.166;4.466;2023-04-24T15:17:29;13.80;99.90
25973;DHT22;13765;51.166;4.466;2023-04-24T15:19:55;13.50;99.90
25973;DHT22;13765;51.166;4.466;2023-04-24T15:22:21;13.50;99.90
25973;DHT22;13765;51.166;4.466;2023-04-24T15:24:46;13.60;99.90
25973;DHT22;13765;51.166;4.466;2023-04-24T15:27:12;13.70;99.90
25973;DHT22;13765;51.166;4.466;2023-04-24T15:29:38;13.80;99.90
25973;DHT22;13765;51.166;4.466;2023-04-24T15:32:04;13.60;99.90
25973;DHT22;13765;51.166;4.466;2023-04-24T15:34:31;13.60;99.90
25973;DHT22;13765;51.166;4.466;2023-04-24T15:36:58;13.40;99.90
25973;DHT22;13765;51.166;4.466;2023-04-24T15:39:24;13.50;99.90
25973;DHT22;13765;51.166;4.466;2023-04-24T15:41:50;13.40;99.90
25973;DHT22;13765;51.166;4.466;2023-04-24T15:44:16;13.40;99.90
25973;DHT22;13765;51.166;4.466;2023-04-24T15:46:44;13.40;99.90
25973;DHT22;13765;51.166;4.466;2023-04-24T15:49:10;13.40;99.90
25973;DHT22;13765;51.166;4.466;2023-04-24T15:51:36;13.50;99.90
25973;DHT22;13765;51.166;4.466;2023-04-24T15:54:02;13.40;99.90
25973;DHT22;13765;51.166;4.466;2023-04-24T15:56:28;13.50;99.90
25973;DHT22;13765;51.166;4.466;2023-04-24T15:58:58;13.40;99.90
25973;DHT22;13765;51.166;4.466;2023-04-24T16:01:25;13.30;99.90
25973;DHT22;13765;51.166;4.466;2023-04-24T16:03:50;13.30;99.90
25973;DHT22;13765;51.166;4.466;2023-04-24T16:06:16;13.30;99.90